createdAt,value
2023-02-24T00:00:28.483Z,0.50
2023-02-24T00:03:12.450Z,0.51
2023-02-24T00:06:06.461Z,0.49
2023-02-24T00:08:54.453Z,0.48
2023-02-24T00:11:28.149Z,0.47
2023-02-24T00:14:16.502Z,0.46
2023-02-24T00:16:50.604Z,0.46
2023-02-24T00:19:41.488Z,0.45
2023-02-24T00:22:35.597Z,0.46
2023-02-24T00:25:29.465Z,0.46
2023-02-24T00:28:16.524Z,0.45
2023-02-24T00:30:49.625Z,0.44
2023-02-24T00:33:37.476Z,0.43
2023-02-24T00:36:12.589Z,0.42
2023-02-24T00:39:04.452Z,0.40
2023-02-24T00:41:40.221Z,0.36
2023-02-24T00:44:26.458Z,0.35
2023-02-24T00:47:01.580Z,0.35
2023-02-24T00:49:49.479Z,0.34
2023-02-24T00:52:34.457Z,0.31
2023-02-24T00:55:29.475Z,0.27
2023-02-24T00:58:26.457Z,0.27
2023-02-24T01:01:20.902Z,0.28
2023-02-24T01:03:55.599Z,0.28
2023-02-24T01:06:42.519Z,0.29
2023-02-24T01:09:23.592Z,0.29
2023-02-24T01:12:29.545Z,0.27
2023-02-24T01:15:03.249Z,0.28
2023-02-24T01:17:50.489Z,0.29
2023-02-24T01:20:30.564Z,0.31
2023-02-24T01:23:17.480Z,0.33
2023-02-24T01:25:58.254Z,0.37
2023-02-24T01:28:44.517Z,0.37
2023-02-24T01:31:24.104Z,0.36
2023-02-24T01:34:12.515Z,0.35
2023-02-24T01:36:55.486Z,0.36
2023-02-24T01:39:49.530Z,0.40
2023-02-24T01:42:36.525Z,0.44
2023-02-24T01:45:18.665Z,0.44
2023-02-24T01:48:11.482Z,0.41
2023-02-24T01:50:45.568Z,0.40
2023-02-24T01:53:32.522Z,0.41
2023-02-24T01:56:06.980Z,0.39
2023-02-24T01:58:54.524Z,0.39
2023-02-24T02:01:35.616Z,0.40
2023-02-24T02:04:40.525Z,0.41
2023-02-24T02:07:29.528Z,0.40
2023-02-24T02:10:13.524Z,0.39
2023-02-24T02:13:11.528Z,0.38
2023-02-24T02:16:26.626Z,0.38
2023-02-24T02:19:15.584Z,0.37
2023-02-24T02:22:14.512Z,0.39
2023-02-24T02:25:13.554Z,0.40
2023-02-24T02:28:09.573Z,0.41
2023-02-24T02:31:19.970Z,0.43
2023-02-24T02:34:08.522Z,0.42
2023-02-24T02:37:18.525Z,0.42
2023-02-24T02:40:07.527Z,0.41
2023-02-24T02:43:05.522Z,0.41
2023-02-24T02:46:22.600Z,0.46
2023-02-24T02:49:45.525Z,0.48
2023-02-24T02:52:41.526Z,0.51
2023-02-24T02:55:23.918Z,0.53
2023-02-24T02:58:15.543Z,0.55
2023-02-24T03:01:02.763Z,0.56
2023-02-24T03:03:53.531Z,0.54
2023-02-24T03:06:40.657Z,0.55
2023-02-24T03:09:32.522Z,0.58
2023-02-24T03:12:24.524Z,0.60
2023-02-24T03:15:24.539Z,0.64
2023-02-24T03:18:18.561Z,0.66
2023-02-24T03:21:24.937Z,0.69
2023-02-24T03:24:13.561Z,0.70
2023-02-24T03:26:58.307Z,0.68
2023-02-24T03:30:01.541Z,0.66
2023-02-24T03:32:51.955Z,0.69
2023-02-24T03:35:53.645Z,0.67
2023-02-24T03:38:48.493Z,0.68
2023-02-24T03:41:45.504Z,0.68
2023-02-24T03:44:18.680Z,0.69
2023-02-24T03:47:08.481Z,0.69
2023-02-24T03:49:43.830Z,0.72
2023-02-24T03:52:46.496Z,0.74
2023-02-24T03:56:05.552Z,0.75
2023-02-24T03:59:22.499Z,0.77
2023-02-24T04:02:12.614Z,0.80
2023-02-24T04:04:55.720Z,0.80
2023-02-24T04:08:07.550Z,0.87
2023-02-24T04:11:05.725Z,0.89
2023-02-24T04:14:17.680Z,0.90
2023-02-24T04:17:08.991Z,0.95
2023-02-24T04:19:58.498Z,0.98
2023-02-24T04:22:33.648Z,1.00
2023-02-24T04:25:24.561Z,1.03
2023-02-24T04:28:07.551Z,1.06
2023-02-24T04:31:05.628Z,1.07
2023-02-24T04:33:56.521Z,1.08
2023-02-24T04:36:29.658Z,1.07
2023-02-24T04:39:17.704Z,1.06
2023-02-24T04:41:52.659Z,1.08
2023-02-24T04:44:39.551Z,1.11
2023-02-24T04:47:19.571Z,1.13
2023-02-24T04:50:06.582Z,1.13
2023-02-24T04:52:39.670Z,1.15
2023-02-24T04:55:28.576Z,1.15
2023-02-24T04:58:03.639Z,1.18
2023-02-24T05:00:50.575Z,1.15
2023-02-24T05:03:28.707Z,1.17
2023-02-24T05:06:21.565Z,1.19
2023-02-24T05:09:01.586Z,1.20
2023-02-24T05:11:57.553Z,1.21
2023-02-24T05:14:46.583Z,1.22
2023-02-24T05:17:20.171Z,1.22
2023-02-24T05:20:24.584Z,1.21
2023-02-24T05:23:18.587Z,1.21
2023-02-24T05:26:15.598Z,1.23
2023-02-24T05:29:09.566Z,1.23
2023-02-24T05:31:56.686Z,1.23
2023-02-24T05:34:37.620Z,1.22
2023-02-24T05:37:24.583Z,1.22
2023-02-24T05:40:10.590Z,1.24
2023-02-24T05:42:58.592Z,1.24
2023-02-24T05:45:38.579Z,1.24
2023-02-24T05:48:32.578Z,1.27
2023-02-24T05:51:19.805Z,1.29
2023-02-24T05:54:02.575Z,1.29
2023-02-24T05:56:50.585Z,1.31
2023-02-24T05:59:32.658Z,1.33
2023-02-24T06:02:33.614Z,1.33
2023-02-24T06:05:36.669Z,1.36
2023-02-24T06:08:30.582Z,1.39
2023-02-24T06:11:26.727Z,1.42
2023-02-24T06:14:22.619Z,1.44
2023-02-24T06:17:16.580Z,1.48
2023-02-24T06:20:20.589Z,1.50
2023-02-24T06:23:15.612Z,1.55
2023-02-24T06:26:26.592Z,1.59
2023-02-24T06:29:13.610Z,1.64
2023-02-24T06:31:48.685Z,1.66
2023-02-24T06:34:36.585Z,1.70
2023-02-24T06:37:17.605Z,1.72
2023-02-24T06:40:05.623Z,1.76
2023-02-24T06:42:45.600Z,1.80
2023-02-24T06:45:33.680Z,1.83
2023-02-24T06:48:15.630Z,1.88
2023-02-24T06:51:11.602Z,1.94
2023-02-24T06:54:08.633Z,1.97
2023-02-24T06:57:05.630Z,2.01
2023-02-24T06:59:52.631Z,2.07
2023-02-24T07:02:39.742Z,2.09
2023-02-24T07:05:30.657Z,2.13
2023-02-24T07:08:03.713Z,2.15
2023-02-24T07:10:51.611Z,2.17
2023-02-24T07:13:24.715Z,2.21
2023-02-24T07:16:14.608Z,2.27
2023-02-24T07:18:48.946Z,2.32
2023-02-24T07:21:38.588Z,2.36
2023-02-24T07:24:20.631Z,2.41
2023-02-24T07:27:18.630Z,2.47
2023-02-24T07:30:05.621Z,2.55
2023-02-24T07:32:46.672Z,2.63
2023-02-24T07:38:34.627Z,2.81
2023-02-24T07:41:25.674Z,2.89
2023-02-24T07:44:09.631Z,2.97
2023-02-24T07:46:56.649Z,3.03
2023-02-24T07:49:37.632Z,3.09
2023-02-24T07:52:31.619Z,3.19
2023-02-24T07:55:18.645Z,3.29
2023-02-24T07:58:01.663Z,3.38
2023-02-24T08:01:07.622Z,3.48
2023-02-24T08:03:58.630Z,3.62
2023-02-24T08:06:47.968Z,3.71
2023-02-24T08:09:59.621Z,3.83
2023-02-24T08:12:35.200Z,3.94
2023-02-24T08:15:24.671Z,4.04
2023-02-24T08:18:06.638Z,4.16
2023-02-24T08:21:00.627Z,4.27
2023-02-24T08:23:51.636Z,4.34
2023-02-24T08:26:30.755Z,4.43
2023-02-24T08:29:20.945Z,4.51
2023-02-24T08:31:53.874Z,4.62
2023-02-24T08:34:40.636Z,4.73
2023-02-24T08:37:15.743Z,4.83
2023-02-24T08:42:53.731Z,4.93
2023-02-24T08:45:40.679Z,4.96
2023-02-24T08:48:26.376Z,4.99
2023-02-24T08:51:13.638Z,5.07
2023-02-24T08:53:47.192Z,5.13
2023-02-24T08:56:36.648Z,5.17
2023-02-24T08:59:29.131Z,5.23
2023-02-24T09:02:25.645Z,5.32
2023-02-24T09:05:03.943Z,5.38
2023-02-24T09:07:50.682Z,5.47
2023-02-24T09:10:32.639Z,5.55
2023-02-24T09:13:26.690Z,5.64
2023-02-24T09:16:25.005Z,5.73
2023-02-24T09:19:30.642Z,5.78
2023-02-24T09:22:21.825Z,5.88
2023-02-24T09:25:24.641Z,5.91
2023-02-24T09:28:15.651Z,5.93
2023-02-24T09:30:58.600Z,5.93
2023-02-24T09:33:45.634Z,5.90
2023-02-24T09:36:30.239Z,5.84
2023-02-24T09:39:16.692Z,5.77
2023-02-24T09:45:19.650Z,5.73
2023-02-24T09:48:01.663Z,5.67
2023-02-24T09:51:18.917Z,5.62
2023-02-24T09:54:20.614Z,5.60
2023-02-24T09:57:17.213Z,5.60
2023-02-24T10:00:34.502Z,5.54
2023-02-24T10:03:19.951Z,5.49
2023-02-24T10:06:18.697Z,5.47
2023-02-24T10:09:06.516Z,5.45
2023-02-24T10:15:25.665Z,5.49
2023-02-24T10:19:07.663Z,5.52
2023-02-24T10:22:14.705Z,5.54
2023-02-24T10:25:22.583Z,5.56
2023-02-24T10:28:26.698Z,5.55
2023-02-24T10:31:26.075Z,5.56
2023-02-24T10:34:17.677Z,5.60
2023-02-24T10:36:57.684Z,5.62
2023-02-24T10:39:51.487Z,5.67
2023-02-24T10:42:43.667Z,5.73
2023-02-24T10:45:40.693Z,5.80
2023-02-24T10:48:41.464Z,5.85
2023-02-24T10:51:28.698Z,5.89
2023-02-24T10:54:40.725Z,5.91
2023-02-24T10:57:24.697Z,5.98
2023-02-24T11:00:58.732Z,6.05
2023-02-24T11:03:54.688Z,6.25
2023-02-24T11:06:48.706Z,6.46
2023-02-24T11:09:35.669Z,6.64
2023-02-24T11:12:37.533Z,6.74
2023-02-24T11:15:44.584Z,6.79
2023-02-24T11:18:27.827Z,6.82
2023-02-24T11:21:24.686Z,6.87
2023-02-24T11:24:19.690Z,6.87
2023-02-24T11:27:09.818Z,6.93
2023-02-24T11:30:06.786Z,6.97
2023-02-24T11:33:23.697Z,6.98
2023-02-24T11:36:26.713Z,7.06
2023-02-24T11:39:47.685Z,7.10
2023-02-24T11:43:05.685Z,7.08
2023-02-24T11:45:57.744Z,7.06
2023-02-24T11:48:38.835Z,7.06
2023-02-24T11:51:29.704Z,7.05
2023-02-24T11:54:08.798Z,7.05
2023-02-24T11:57:06.702Z,7.07
2023-02-24T12:00:04.687Z,7.09
2023-02-24T12:03:04.124Z,7.12
2023-02-24T12:05:55.747Z,7.06
2023-02-24T12:08:37.886Z,7.06
2023-02-24T12:11:53.734Z,7.00
2023-02-24T12:14:51.819Z,6.96
2023-02-24T12:17:55.724Z,6.93
2023-02-24T12:20:46.715Z,6.93
2023-02-24T12:23:45.720Z,6.93
2023-02-24T12:26:38.713Z,6.94
2023-02-24T12:29:35.873Z,6.96
2023-02-24T12:32:56.756Z,6.99
2023-02-24T12:35:54.717Z,6.98
2023-02-24T12:38:49.765Z,6.97
2023-02-24T12:41:49.713Z,6.94
2023-02-24T12:44:43.839Z,6.95
2023-02-24T12:47:53.950Z,6.94
2023-02-24T12:50:53.720Z,6.99
2023-02-24T12:53:57.813Z,7.05
2023-02-24T12:57:06.748Z,7.13
2023-02-24T12:59:45.823Z,7.18
2023-02-24T13:03:07.741Z,7.23
2023-02-24T13:05:56.753Z,7.26
2023-02-24T13:09:04.716Z,7.31
2023-02-24T13:12:09.726Z,7.36
2023-02-24T13:14:57.749Z,7.40
2023-02-24T13:17:32.838Z,7.46
2023-02-24T13:20:20.719Z,7.55
2023-02-24T13:23:00.731Z,7.59
2023-02-24T13:25:54.735Z,7.60
2023-02-24T13:28:44.736Z,7.61
2023-02-24T13:31:23.691Z,7.63
2023-02-24T13:34:36.750Z,7.61
2023-02-24T13:37:09.975Z,7.57
2023-02-24T13:39:56.733Z,7.55
2023-02-24T13:42:42.765Z,7.53
2023-02-24T13:45:43.745Z,7.50
2023-02-24T13:48:42.754Z,7.47
2023-02-24T13:52:04.837Z,7.42
2023-02-24T13:55:04.751Z,7.36
2023-02-24T13:58:21.755Z,7.34
2023-02-24T14:01:22.234Z,7.28
2023-02-24T14:04:17.756Z,7.24
2023-02-24T14:06:57.879Z,7.23
2023-02-24T14:09:49.746Z,7.23
2023-02-24T14:12:33.742Z,7.18
2023-02-24T14:15:32.838Z,7.15
2023-02-24T14:18:35.757Z,7.08
2023-02-24T14:21:09.892Z,7.07
2023-02-24T14:24:08.768Z,7.04
2023-02-24T14:26:49.960Z,6.99
2023-02-24T14:29:44.211Z,6.94
2023-02-24T14:32:34.872Z,6.92
2023-02-24T14:35:38.779Z,6.92
2023-02-24T14:38:12.865Z,6.87
2023-02-24T14:40:59.776Z,6.83
2023-02-24T14:43:40.770Z,6.82
2023-02-24T14:46:27.838Z,6.76
2023-02-24T14:49:08.810Z,6.71
2023-02-24T14:52:01.771Z,6.66
2023-02-24T14:55:03.914Z,6.60
2023-02-24T14:58:08.767Z,6.55
2023-02-24T15:00:56.790Z,6.45
2023-02-24T15:03:57.776Z,6.34
2023-02-24T15:06:49.837Z,6.22
2023-02-24T15:09:34.812Z,6.14
2023-02-24T15:12:42.786Z,6.04
2023-02-24T15:15:34.783Z,5.94
2023-02-24T15:18:40.813Z,5.88
2023-02-24T15:21:45.793Z,5.84
2023-02-24T15:24:47.776Z,5.78
2023-02-24T15:27:42.794Z,5.73
2023-02-24T15:30:40.824Z,5.65
2023-02-24T15:33:30.795Z,5.59
2023-02-24T15:36:05.870Z,5.56
2023-02-24T15:38:53.817Z,5.50
2023-02-24T15:41:26.887Z,5.46
2023-02-24T15:44:28.780Z,5.41
2023-02-24T15:47:10.831Z,5.39
2023-02-24T15:49:57.793Z,5.37
2023-02-24T15:52:40.861Z,5.34
2023-02-24T15:55:41.920Z,5.32
2023-02-24T15:58:29.799Z,5.28
2023-02-24T16:01:02.911Z,5.27
2023-02-24T16:03:49.838Z,5.23
2023-02-24T16:06:28.502Z,5.19
2023-02-24T16:09:22.797Z,5.14
2023-02-24T16:11:55.928Z,5.10
2023-02-24T16:14:42.803Z,5.03
2023-02-24T16:17:43.894Z,5.00
2023-02-24T16:20:41.878Z,4.95
2023-02-24T16:23:16.884Z,4.92
2023-02-24T16:26:05.812Z,4.87
2023-02-24T16:28:38.883Z,4.82
2023-02-24T16:31:26.064Z,4.78
2023-02-24T16:34:01.095Z,4.74
2023-02-24T16:36:48.826Z,4.71
2023-02-24T16:39:28.823Z,4.67
2023-02-24T16:42:23.796Z,4.65
2023-02-24T16:45:17.821Z,4.64
2023-02-24T16:48:07.829Z,4.63
2023-02-24T16:50:45.969Z,4.62
2023-02-24T16:53:32.819Z,4.61
2023-02-24T16:56:12.837Z,4.59
2023-02-24T16:59:06.829Z,4.58
2023-02-24T17:01:53.815Z,4.55
2023-02-24T17:04:29.012Z,4.51
2023-02-24T17:07:17.812Z,4.51
2023-02-24T17:09:50.988Z,4.48
2023-02-24T17:12:37.826Z,4.46
2023-02-24T17:15:18.811Z,4.43
2023-02-24T17:18:12.832Z,4.39
2023-02-24T17:21:00.033Z,4.37
2023-02-24T17:23:32.943Z,4.36
2023-02-24T17:26:22.083Z,4.33
2023-02-24T17:28:55.935Z,4.33
2023-02-24T17:31:42.953Z,4.33
2023-02-24T17:34:27.846Z,4.35
2023-02-24T17:37:21.840Z,4.31
2023-02-24T17:40:15.839Z,4.28
2023-02-24T17:43:09.846Z,4.27
2023-02-24T17:45:57.864Z,4.23
2023-02-24T17:48:37.846Z,4.18
2023-02-24T17:51:26.836Z,4.11
2023-02-24T17:54:00.937Z,4.08
2023-02-24T17:56:47.832Z,4.04
2023-02-24T17:59:20.935Z,4.01
2023-02-24T18:02:08.907Z,4.01
2023-02-24T18:04:41.957Z,3.98
2023-02-24T18:07:28.856Z,3.94
2023-02-24T18:10:02.017Z,3.89
2023-02-24T18:12:48.836Z,3.85
2023-02-24T18:15:28.912Z,3.84
2023-02-24T18:18:15.906Z,3.83
2023-02-24T18:20:49.992Z,3.82
2023-02-24T18:23:44.846Z,3.81
2023-02-24T18:26:38.840Z,3.83
2023-02-24T18:29:32.848Z,3.83
2023-02-24T18:32:19.994Z,3.83
2023-02-24T18:34:53.033Z,3.82
2023-02-24T18:37:39.867Z,3.78
2023-02-24T18:40:20.840Z,3.75
2023-02-24T18:43:15.002Z,3.69
2023-02-24T18:46:07.028Z,3.70
2023-02-24T18:48:41.340Z,3.68
2023-02-24T18:51:29.876Z,3.66
2023-02-24T18:54:13.283Z,3.63
2023-02-24T18:57:06.872Z,3.61
2023-02-24T18:59:57.879Z,3.57
2023-02-24T19:02:37.886Z,3.53
2023-02-24T19:05:38.395Z,3.49
2023-02-24T19:08:25.869Z,3.47
2023-02-24T19:10:58.951Z,3.47
2023-02-24T19:13:45.930Z,3.46
2023-02-24T19:16:19.048Z,3.43
2023-02-24T19:19:06.871Z,3.39
2023-02-24T19:21:41.018Z,3.37
2023-02-24T19:24:27.875Z,3.38
2023-02-24T19:27:01.267Z,3.35
2023-02-24T19:29:47.870Z,3.31
2023-02-24T19:32:28.007Z,3.30
2023-02-24T19:35:23.026Z,3.32
2023-02-24T19:38:10.024Z,3.33
2023-02-24T19:40:43.099Z,3.33
2023-02-24T19:43:29.873Z,3.33
2023-02-24T19:46:03.051Z,3.34
2023-02-24T19:48:49.905Z,3.31
2023-02-24T19:51:25.981Z,3.30
2023-02-24T19:54:12.898Z,3.33
2023-02-24T19:56:52.893Z,3.35
2023-02-24T19:59:46.899Z,3.39
2023-02-24T20:02:40.889Z,3.39
2023-02-24T20:05:27.889Z,3.42
2023-02-24T20:08:07.894Z,3.45
2023-02-24T20:11:11.876Z,3.45
2023-02-24T20:13:59.907Z,3.49
2023-02-24T20:16:34.830Z,3.49
2023-02-24T20:19:22.894Z,3.49
2023-02-24T20:22:02.920Z,3.49
2023-02-24T20:24:57.060Z,3.50
2023-02-24T20:27:50.914Z,3.52
2023-02-24T20:30:37.936Z,3.53
2023-02-24T20:33:11.029Z,3.52
2023-02-24T20:35:58.891Z,3.53
2023-02-24T20:38:38.911Z,3.54
2023-02-24T20:41:27.899Z,3.58
2023-02-24T20:44:02.098Z,3.57
2023-02-24T20:46:48.931Z,3.59
2023-02-24T20:49:22.066Z,3.64
2023-02-24T20:52:08.919Z,3.67
2023-02-24T20:54:44.264Z,3.69
2023-02-24T20:57:30.935Z,3.72
2023-02-24T21:00:14.937Z,3.74
2023-02-24T21:03:13.907Z,3.76
2023-02-24T21:06:09.474Z,3.74
2023-02-24T21:08:45.803Z,3.74
2023-02-24T21:11:33.945Z,3.73
2023-02-24T21:14:13.908Z,3.75
2023-02-24T21:17:07.935Z,3.76
2023-02-24T21:19:55.910Z,3.78
2023-02-24T21:22:31.314Z,3.76
2023-02-24T21:25:17.979Z,3.78
2023-02-24T21:27:52.030Z,3.77
2023-02-24T21:30:39.015Z,3.75
2023-02-24T21:33:19.912Z,3.75
2023-02-24T21:36:17.933Z,3.74
2023-02-24T21:39:04.924Z,3.75
2023-02-24T21:41:38.059Z,3.75
2023-02-24T21:44:24.920Z,3.75
2023-02-24T21:46:58.084Z,3.77
2023-02-24T21:49:44.927Z,3.75
2023-02-24T21:52:18.026Z,3.70
2023-02-24T21:55:04.932Z,3.65
2023-02-24T21:57:41.108Z,3.63
2023-02-24T22:00:28.872Z,3.54
2023-02-24T22:03:08.991Z,3.49
2023-02-24T22:06:02.940Z,3.44
2023-02-24T22:08:49.971Z,3.38
2023-02-24T22:11:24.028Z,3.34
2023-02-24T22:14:13.925Z,3.28
2023-02-24T22:16:48.041Z,3.24
2023-02-24T22:19:34.938Z,3.21
2023-02-24T22:22:14.949Z,3.22
2023-02-24T22:25:08.944Z,3.18
2023-02-24T22:28:02.925Z,3.11
2023-02-24T22:30:49.960Z,3.04
2023-02-24T22:33:29.945Z,3.01
2023-02-24T22:36:18.949Z,2.98
2023-02-24T22:38:53.071Z,2.98
2023-02-24T22:41:41.957Z,2.96
2023-02-24T22:44:25.964Z,2.96
2023-02-24T22:47:19.932Z,2.98
2023-02-24T22:50:06.996Z,2.97
2023-02-24T22:52:40.049Z,2.96
2023-02-24T22:55:26.958Z,2.95
2023-02-24T22:58:06.951Z,2.93
2023-02-24T23:01:05.013Z,2.93
2023-02-24T23:03:53.138Z,2.91
2023-02-24T23:06:38.990Z,2.89
2023-02-24T23:09:32.951Z,2.88
2023-02-24T23:12:21.940Z,2.86
2023-02-24T23:14:55.073Z,2.89
2023-02-24T23:17:41.959Z,2.90
2023-02-24T23:20:16.315Z,2.96
2023-02-24T23:23:09.960Z,2.99
2023-02-24T23:26:03.983Z,2.98
2023-02-24T23:28:50.995Z,3.00
2023-02-24T23:31:33.041Z,3.02
2023-02-24T23:34:28.051Z,3.04
2023-02-24T23:37:22.977Z,3.07
2023-02-24T23:40:21.013Z,3.08
2023-02-24T23:42:54.401Z,3.10
2023-02-24T23:45:44.005Z,3.10
2023-02-24T23:48:20.805Z,3.13
2023-02-24T23:51:13.990Z,3.13
2023-02-24T23:53:56.035Z,3.16
2023-02-24T23:56:49.980Z,3.17
2023-02-24T23:59:44.030Z,3.19
